createdAt,value
2018-12-31T00:01:05.945Z,9.17
2018-12-31T00:03:36.646Z,9.53
2018-12-31T00:06:08.115Z,10.00
2018-12-31T00:08:38.516Z,8.90
2018-12-31T00:11:09.399Z,10.30
2018-12-31T00:13:46.285Z,9.47
2018-12-31T00:16:21.921Z,10.60
2018-12-31T00:18:56.669Z,9.70
2018-12-31T00:21:31.614Z,10.10
2018-12-31T00:24:02.480Z,9.37
2018-12-31T00:26:35.026Z,8.83
2018-12-31T00:29:06.988Z,9.37
2018-12-31T00:31:45.827Z,8.80
2018-12-31T00:34:18.185Z,8.50
2018-12-31T00:36:50.596Z,31.50
2018-12-31T00:39:26.328Z,7.30
2018-12-31T00:41:56.893Z,6.37
2018-12-31T00:44:33.775Z,6.90
2018-12-31T00:47:03.887Z,6.70
2018-12-31T00:49:34.362Z,6.60
2018-12-31T00:52:09.502Z,6.30
2018-12-31T00:54:46.622Z,5.43
2018-12-31T00:57:20.403Z,6.10
2018-12-31T01:00:01.624Z,6.40
2018-12-31T01:02:33.069Z,5.90
2018-12-31T01:05:03.588Z,6.60
2018-12-31T01:07:37.861Z,6.43
2018-12-31T01:10:08.226Z,6.87
2018-12-31T01:12:39.286Z,6.53
2018-12-31T01:15:11.084Z,5.93
2018-12-31T01:17:42.966Z,7.57
2018-12-31T01:20:15.412Z,7.33
2018-12-31T01:22:49.934Z,7.20
2018-12-31T01:25:21.565Z,6.80
2018-12-31T01:27:53.834Z,7.00
2018-12-31T01:30:27.049Z,7.00
2018-12-31T01:33:01.285Z,8.30
2018-12-31T01:35:37.448Z,7.27
2018-12-31T01:38:12.605Z,8.77
2018-12-31T01:40:46.738Z,8.37
2018-12-31T01:43:20.441Z,7.83
2018-12-31T01:45:52.295Z,9.10
2018-12-31T01:48:22.804Z,9.70
2018-12-31T01:50:55.194Z,9.67
2018-12-31T01:53:25.770Z,9.60
2018-12-31T01:55:57.199Z,9.23
2018-12-31T01:58:27.529Z,10.93
2018-12-31T02:00:57.881Z,10.10
2018-12-31T02:03:28.744Z,10.17
2018-12-31T02:05:59.624Z,11.13
2018-12-31T02:08:30.786Z,10.53
2018-12-31T02:11:02.348Z,11.00
2018-12-31T02:13:33.147Z,8.83
2018-12-31T02:16:04.326Z,9.80
2018-12-31T02:18:35.770Z,10.63
2018-12-31T02:21:07.030Z,9.30
2018-12-31T02:23:37.644Z,8.60
2018-12-31T02:26:09.110Z,8.17
2018-12-31T02:28:40.744Z,10.07
2018-12-31T02:31:12.374Z,10.53
2018-12-31T02:33:43.173Z,10.03
2018-12-31T02:36:13.685Z,12.63
2018-12-31T02:38:44.289Z,11.37
2018-12-31T02:41:15.243Z,10.40
2018-12-31T02:43:46.866Z,14.77
2018-12-31T02:46:17.436Z,12.00
2018-12-31T02:48:48.704Z,12.03
2018-12-31T02:51:20.115Z,11.60
2018-12-31T02:53:50.949Z,17.30
2018-12-31T02:56:21.703Z,12.57
2018-12-31T02:58:52.763Z,12.20
2018-12-31T03:01:24.940Z,13.60
2018-12-31T03:03:56.042Z,15.70
2018-12-31T03:06:26.649Z,11.70
2018-12-31T03:08:57.075Z,12.70
2018-12-31T03:11:27.458Z,11.30
2018-12-31T03:13:57.715Z,11.30
2018-12-31T03:16:27.934Z,13.73
2018-12-31T03:18:58.612Z,11.20
2018-12-31T03:21:29.131Z,8.80
2018-12-31T03:23:59.940Z,9.60
2018-12-31T03:26:30.224Z,10.30
2018-12-31T03:29:00.617Z,7.47
2018-12-31T03:31:30.802Z,8.00
2018-12-31T03:34:01.084Z,6.33
2018-12-31T03:36:31.803Z,6.67
2018-12-31T03:39:02.044Z,6.07
2018-12-31T03:41:33.048Z,5.17
2018-12-31T03:44:03.319Z,6.90
2018-12-31T03:46:33.738Z,6.63
2018-12-31T03:49:04.100Z,7.47
2018-12-31T03:51:35.085Z,7.07
2018-12-31T03:54:05.827Z,5.37
2018-12-31T03:56:36.694Z,5.67
2018-12-31T03:59:07.349Z,4.77
2018-12-31T04:01:37.988Z,7.07
2018-12-31T04:04:08.444Z,6.67
2018-12-31T04:06:39.208Z,5.77
2018-12-31T04:09:10.066Z,4.20
2018-12-31T04:11:40.713Z,4.03
2018-12-31T04:14:10.959Z,4.90
2018-12-31T04:16:41.770Z,4.87
2018-12-31T04:19:12.240Z,4.87
2018-12-31T04:21:43.436Z,4.27
2018-12-31T04:24:13.619Z,3.80
2018-12-31T04:26:43.977Z,4.07
2018-12-31T04:29:14.310Z,5.10
2018-12-31T04:31:44.911Z,3.87
2018-12-31T04:34:15.165Z,3.47
2018-12-31T04:36:46.046Z,3.97
2018-12-31T04:39:17.050Z,4.57
2018-12-31T04:41:48.162Z,4.83
2018-12-31T04:44:19.032Z,5.57
2018-12-31T04:46:49.850Z,4.90
2018-12-31T04:49:21.232Z,4.67
2018-12-31T04:51:52.734Z,3.93
2018-12-31T04:54:23.774Z,5.37
2018-12-31T04:56:54.546Z,5.20
2018-12-31T04:59:25.565Z,3.43
2018-12-31T05:01:56.681Z,4.47
2018-12-31T05:04:27.794Z,4.00
2018-12-31T05:06:58.714Z,3.50
2018-12-31T05:09:29.935Z,3.77
2018-12-31T05:12:00.984Z,2.77
2018-12-31T05:14:33.090Z,3.80
2018-12-31T05:17:03.626Z,3.73
2018-12-31T05:19:36.437Z,3.13
2018-12-31T05:22:07.176Z,4.10
2018-12-31T05:24:38.141Z,2.93
2018-12-31T05:27:09.020Z,4.00
2018-12-31T05:29:40.075Z,3.37
2018-12-31T05:32:11.033Z,3.30
2018-12-31T05:34:41.638Z,3.37
2018-12-31T05:37:12.676Z,3.13
2018-12-31T05:39:44.888Z,2.40
2018-12-31T05:42:15.688Z,1.90
2018-12-31T05:44:46.749Z,2.20
2018-12-31T05:47:17.784Z,2.90
2018-12-31T05:49:49.080Z,2.50
2018-12-31T05:52:20.075Z,2.00
2018-12-31T05:54:50.336Z,2.47
2018-12-31T05:57:21.615Z,1.77
2018-12-31T05:59:52.004Z,1.80
2018-12-31T06:02:23.029Z,2.10
2018-12-31T06:04:53.764Z,1.80
2018-12-31T06:07:24.158Z,1.40
2018-12-31T06:09:54.803Z,1.73
2018-12-31T06:12:25.508Z,2.13
2018-12-31T06:14:56.413Z,2.00
2018-12-31T06:17:27.804Z,2.10
2018-12-31T06:19:58.988Z,1.80
2018-12-31T06:22:30.006Z,2.10
2018-12-31T06:25:01.056Z,3.03
2018-12-31T06:27:32.232Z,1.60
2018-12-31T06:30:03.695Z,2.07
2018-12-31T06:32:34.507Z,2.00
2018-12-31T06:35:05.724Z,2.00
2018-12-31T06:37:36.759Z,1.98
2018-12-31T06:40:08.251Z,1.93
2018-12-31T06:42:42.476Z,2.03
2018-12-31T06:45:13.418Z,1.87
2018-12-31T06:47:44.243Z,1.93
2018-12-31T06:50:14.914Z,1.83
2018-12-31T06:52:45.128Z,1.97
2018-12-31T06:55:15.628Z,1.60
2018-12-31T06:57:46.446Z,2.20
2018-12-31T07:00:16.884Z,2.33
2018-12-31T07:02:47.359Z,2.10
2018-12-31T07:05:19.191Z,2.50
2018-12-31T07:07:50.124Z,2.07
2018-12-31T07:10:21.768Z,1.80
2018-12-31T07:12:52.619Z,2.50
2018-12-31T07:15:24.008Z,2.90
2018-12-31T07:17:55.699Z,2.00
2018-12-31T07:20:26.971Z,2.03
2018-12-31T07:22:58.737Z,1.90
2018-12-31T07:25:29.690Z,2.53
2018-12-31T07:28:01.006Z,2.20
2018-12-31T07:30:32.561Z,2.83
2018-12-31T07:33:03.507Z,3.03
2018-12-31T07:35:34.786Z,3.17
2018-12-31T07:38:05.880Z,2.37
2018-12-31T07:40:36.967Z,2.57
2018-12-31T07:43:09.596Z,3.10
2018-12-31T07:45:41.975Z,3.40
2018-12-31T07:48:12.619Z,4.30
2018-12-31T07:50:43.529Z,3.20
2018-12-31T07:53:13.799Z,3.33
2018-12-31T07:55:44.272Z,3.27
2018-12-31T07:58:14.544Z,2.90
2018-12-31T08:00:46.024Z,2.97
2018-12-31T08:03:17.028Z,2.87
2018-12-31T08:05:48.470Z,2.17
2018-12-31T08:08:19.615Z,3.00
2018-12-31T08:10:51.095Z,3.73
2018-12-31T08:13:22.201Z,5.03
2018-12-31T08:15:53.258Z,4.27
2018-12-31T08:18:24.316Z,4.10
2018-12-31T08:20:54.959Z,2.63
2018-12-31T08:23:25.794Z,4.07
2018-12-31T08:25:56.899Z,4.50
2018-12-31T08:28:27.598Z,3.07
2018-12-31T08:30:57.874Z,3.27
2018-12-31T08:33:28.118Z,3.83
2018-12-31T08:35:59.655Z,3.87
2018-12-31T08:38:30.922Z,3.13
2018-12-31T08:41:02.738Z,3.40
2018-12-31T08:43:33.569Z,2.70
2018-12-31T08:46:04.159Z,3.10
2018-12-31T08:48:34.658Z,2.90
2018-12-31T08:51:05.785Z,2.97
2018-12-31T08:53:36.585Z,3.00
2018-12-31T08:56:07.625Z,3.40
2018-12-31T08:58:38.547Z,6.63
2018-12-31T09:01:09.506Z,4.47
2018-12-31T09:03:40.707Z,3.50
2018-12-31T09:06:11.816Z,3.73
2018-12-31T09:08:42.290Z,4.03
2018-12-31T09:11:23.917Z,3.20
2018-12-31T09:14:05.492Z,3.37
2018-12-31T09:16:41.267Z,3.73
2018-12-31T09:19:15.578Z,2.60
2018-12-31T09:21:55.649Z,3.03
2018-12-31T09:24:31.476Z,3.27
2018-12-31T09:27:19.278Z,4.17
2018-12-31T09:29:54.279Z,3.60
2018-12-31T09:32:35.149Z,2.90
2018-12-31T09:35:10.319Z,3.47
2018-12-31T09:37:44.407Z,2.63
2018-12-31T09:40:30.112Z,5.13
2018-12-31T09:43:06.038Z,4.33
2018-12-31T09:45:37.004Z,3.47
2018-12-31T09:48:07.742Z,2.70
2018-12-31T09:50:39.476Z,3.40
2018-12-31T09:53:20.467Z,3.47
2018-12-31T09:55:55.609Z,3.73
2018-12-31T09:58:27.358Z,2.80
2018-12-31T10:01:06.467Z,2.83
2018-12-31T10:03:42.507Z,2.83
2018-12-31T10:06:13.083Z,3.07
2018-12-31T10:08:58.549Z,2.80
2018-12-31T10:11:39.663Z,2.87
2018-12-31T10:14:21.487Z,2.97
2018-12-31T10:16:59.137Z,3.10
2018-12-31T10:19:38.880Z,5.10
2018-12-31T10:22:16.105Z,15.43
2018-12-31T10:24:52.361Z,3.73
2018-12-31T10:27:33.479Z,4.03
2018-12-31T10:30:07.605Z,2.97
2018-12-31T10:32:40.798Z,3.27
2018-12-31T10:35:17.861Z,3.90
2018-12-31T10:37:54.957Z,3.47
2018-12-31T10:40:38.250Z,2.90
2018-12-31T10:43:18.970Z,3.30
2018-12-31T10:45:49.970Z,4.23
2018-12-31T10:48:30.471Z,4.00
2018-12-31T10:51:02.221Z,4.27
2018-12-31T10:53:33.242Z,3.17
2018-12-31T10:56:04.462Z,9.27
2018-12-31T10:58:35.313Z,3.03
2018-12-31T11:01:06.154Z,7.53
2018-12-31T11:03:37.305Z,3.17
2018-12-31T11:06:08.569Z,3.13
2018-12-31T11:08:39.415Z,2.87
2018-12-31T11:11:10.926Z,3.30
2018-12-31T11:13:41.785Z,3.30
2018-12-31T11:16:13.135Z,3.13
2018-12-31T11:18:43.549Z,3.63
2018-12-31T11:21:13.926Z,3.13
2018-12-31T11:23:44.054Z,3.17
2018-12-31T11:26:15.177Z,3.33
2018-12-31T11:28:45.835Z,3.37
2018-12-31T11:31:17.100Z,3.27
2018-12-31T11:33:48.112Z,3.63
2018-12-31T11:36:18.342Z,2.40
2018-12-31T11:38:48.685Z,4.67
2018-12-31T11:41:19.265Z,4.03
2018-12-31T11:43:49.753Z,5.07
2018-12-31T11:46:20.394Z,4.37
2018-12-31T11:48:50.554Z,5.10
2018-12-31T11:51:20.879Z,3.87
2018-12-31T11:53:50.949Z,3.90
2018-12-31T11:56:22.295Z,4.27
2018-12-31T11:58:52.519Z,4.17
2018-12-31T12:01:23.118Z,4.87
2018-12-31T12:03:54.476Z,5.27
2018-12-31T12:06:25.830Z,6.13
2018-12-31T12:08:56.144Z,4.40
2018-12-31T12:11:26.396Z,3.40
2018-12-31T12:13:58.731Z,5.47
2018-12-31T12:16:29.856Z,7.70
2018-12-31T12:19:01.254Z,4.23
2018-12-31T12:21:31.616Z,4.50
2018-12-31T12:24:01.969Z,4.20
2018-12-31T12:26:32.819Z,4.93
2018-12-31T12:29:04.218Z,5.27
2018-12-31T12:31:35.819Z,4.37
2018-12-31T12:34:07.474Z,3.63
2018-12-31T12:36:38.392Z,3.97
2018-12-31T12:39:09.743Z,4.03
2018-12-31T12:41:40.662Z,4.90
2018-12-31T12:44:12.126Z,3.93
2018-12-31T12:46:42.579Z,4.03
2018-12-31T12:49:12.960Z,2.90
2018-12-31T12:51:43.303Z,4.77
2018-12-31T12:54:14.517Z,3.93
2018-12-31T12:56:45.270Z,4.33
2018-12-31T12:59:15.908Z,3.80
2018-12-31T13:01:47.039Z,6.13
2018-12-31T13:04:20.029Z,4.50
2018-12-31T13:06:51.132Z,4.50
2018-12-31T13:09:22.043Z,3.57
2018-12-31T13:11:52.938Z,6.17
2018-12-31T13:14:26.121Z,5.27
2018-12-31T13:16:57.964Z,6.43
2018-12-31T13:19:28.677Z,4.37
2018-12-31T13:21:59.262Z,4.97
2018-12-31T13:24:30.394Z,3.50
2018-12-31T13:27:00.814Z,2.63
2018-12-31T13:29:31.881Z,3.60
2018-12-31T13:32:02.432Z,3.20
2018-12-31T13:34:34.037Z,2.87
2018-12-31T13:37:05.109Z,3.00
2018-12-31T13:39:35.858Z,2.83
2018-12-31T13:42:06.283Z,3.00
2018-12-31T13:44:37.305Z,3.80
2018-12-31T13:47:08.197Z,2.70
2018-12-31T13:49:39.695Z,3.77
2018-12-31T13:52:10.326Z,4.87
2018-12-31T13:54:41.866Z,3.47
2018-12-31T13:57:13.847Z,3.60
2018-12-31T13:59:44.978Z,5.40
2018-12-31T14:02:15.748Z,4.63
2018-12-31T14:04:46.590Z,6.43
2018-12-31T14:07:17.255Z,3.40
2018-12-31T14:09:48.099Z,3.67
2018-12-31T14:12:18.840Z,4.10
2018-12-31T14:14:49.377Z,4.77
2018-12-31T14:17:20.106Z,5.33
2018-12-31T14:19:51.253Z,4.63
2018-12-31T14:22:21.888Z,4.70
2018-12-31T14:24:53.446Z,4.43
2018-12-31T14:27:24.262Z,5.03
2018-12-31T14:29:55.273Z,4.83
2018-12-31T14:32:26.242Z,4.50
2018-12-31T14:34:57.889Z,3.97
2018-12-31T14:37:29.584Z,4.57
2018-12-31T14:40:00.865Z,6.73
2018-12-31T14:42:31.497Z,7.20
2018-12-31T14:45:02.803Z,5.73
2018-12-31T14:47:33.479Z,6.30
2018-12-31T14:50:04.536Z,6.57
2018-12-31T14:52:36.316Z,5.83
2018-12-31T14:55:07.386Z,6.77
2018-12-31T14:57:40.051Z,6.77
2018-12-31T15:00:12.309Z,6.17
2018-12-31T15:02:44.543Z,6.20
2018-12-31T15:05:16.150Z,6.33
2018-12-31T15:07:47.719Z,5.43
2018-12-31T15:10:18.548Z,4.77
2018-12-31T15:12:49.451Z,6.37
2018-12-31T15:15:20.504Z,5.50
2018-12-31T15:17:51.704Z,4.73
2018-12-31T15:20:22.739Z,4.67
2018-12-31T15:22:54.339Z,5.73
2018-12-31T15:25:25.384Z,3.77
2018-12-31T15:27:56.908Z,3.57
2018-12-31T15:30:28.059Z,3.60
2018-12-31T15:33:00.361Z,5.93
2018-12-31T15:35:32.178Z,4.07
2018-12-31T15:38:03.163Z,3.70
2018-12-31T15:40:33.953Z,3.00
2018-12-31T15:43:04.953Z,3.40
2018-12-31T15:45:36.731Z,2.93
2018-12-31T15:48:08.437Z,3.70
2018-12-31T15:50:39.364Z,4.43
2018-12-31T15:53:10.426Z,5.17
2018-12-31T15:55:41.668Z,4.00
2018-12-31T15:58:13.132Z,3.80
2018-12-31T16:00:43.992Z,3.80
2018-12-31T16:03:15.357Z,4.60
2018-12-31T16:05:46.836Z,4.67
2018-12-31T16:08:18.547Z,5.00
2018-12-31T16:10:49.727Z,4.67
2018-12-31T16:13:20.835Z,4.23
2018-12-31T16:15:51.975Z,4.20
2018-12-31T16:18:24.506Z,4.60
2018-12-31T16:20:55.720Z,16.20
2018-12-31T16:23:26.949Z,5.43
2018-12-31T16:25:57.854Z,7.40
2018-12-31T16:28:29.773Z,6.53
2018-12-31T16:31:01.003Z,6.10
2018-12-31T16:33:32.099Z,6.73
2018-12-31T16:36:02.939Z,6.03
2018-12-31T16:38:34.214Z,7.20
2018-12-31T16:41:05.449Z,6.00
2018-12-31T16:43:36.580Z,6.37
2018-12-31T16:46:07.734Z,6.50
2018-12-31T16:48:38.269Z,6.00
2018-12-31T16:51:09.455Z,6.10
2018-12-31T16:53:40.518Z,10.93
2018-12-31T16:56:11.875Z,7.27
2018-12-31T16:58:43.481Z,8.10
2018-12-31T17:01:14.692Z,8.63
2018-12-31T17:03:45.831Z,9.33
2018-12-31T17:06:16.769Z,14.40
2018-12-31T17:08:47.992Z,21.20
2018-12-31T17:11:18.788Z,11.67
2018-12-31T17:13:50.533Z,11.77
2018-12-31T17:16:21.473Z,10.77
2018-12-31T17:18:52.699Z,12.40
2018-12-31T17:21:23.994Z,13.00
2018-12-31T17:23:54.831Z,12.27
2018-12-31T17:26:25.806Z,14.13
2018-12-31T17:28:56.884Z,13.60
2018-12-31T17:31:27.821Z,14.13
2018-12-31T17:33:58.802Z,14.70
2018-12-31T17:36:29.911Z,14.50
2018-12-31T17:39:01.239Z,14.87
2018-12-31T17:41:32.216Z,16.57
2018-12-31T17:44:02.604Z,14.40
2018-12-31T17:46:34.236Z,15.37
2018-12-31T17:49:04.970Z,17.70
2018-12-31T17:51:36.273Z,13.90
2018-12-31T17:54:06.715Z,15.37
2018-12-31T17:56:37.117Z,14.93
2018-12-31T17:59:08.038Z,15.70
2018-12-31T18:01:38.828Z,14.83
2018-12-31T18:04:09.606Z,15.93
2018-12-31T18:06:40.107Z,15.83
2018-12-31T18:09:10.946Z,14.90
2018-12-31T18:11:42.029Z,16.07
2018-12-31T18:14:12.394Z,16.50
2018-12-31T18:16:43.258Z,15.93
2018-12-31T18:19:14.121Z,15.57
2018-12-31T18:21:44.709Z,17.60
2018-12-31T18:24:15.833Z,16.97
2018-12-31T18:26:47.065Z,20.13
2018-12-31T18:29:18.057Z,15.07
2018-12-31T18:31:49.703Z,14.60
2018-12-31T18:34:20.574Z,16.80
2018-12-31T18:36:51.836Z,15.00
2018-12-31T18:39:22.797Z,13.90
2018-12-31T18:41:53.478Z,13.93
2018-12-31T18:44:23.947Z,13.40
2018-12-31T18:46:55.287Z,11.83
2018-12-31T18:49:26.474Z,14.90
2018-12-31T18:51:57.608Z,13.40
2018-12-31T18:54:28.922Z,13.00
2018-12-31T18:56:59.613Z,15.03
2018-12-31T18:59:30.667Z,12.17
2018-12-31T19:02:01.578Z,11.33
2018-12-31T19:04:32.293Z,12.40
2018-12-31T19:07:04.637Z,12.27
2018-12-31T19:09:36.734Z,10.47
2018-12-31T19:12:07.699Z,9.57
2018-12-31T19:14:38.594Z,10.17
2018-12-31T19:17:09.593Z,11.00
2018-12-31T19:19:41.984Z,10.67
2018-12-31T19:22:12.837Z,10.83
2018-12-31T19:24:43.365Z,12.53
2018-12-31T19:27:13.904Z,10.10
2018-12-31T19:29:44.289Z,10.33
2018-12-31T19:32:15.101Z,11.07
2018-12-31T19:34:46.414Z,65.13
2018-12-31T19:37:17.540Z,15.77
2018-12-31T19:39:48.944Z,13.63
2018-12-31T19:42:19.769Z,12.57
2018-12-31T19:44:51.655Z,13.83
2018-12-31T19:47:22.529Z,14.10
2018-12-31T19:49:54.503Z,12.73
2018-12-31T19:52:25.795Z,12.17
2018-12-31T19:54:58.484Z,17.23
2018-12-31T19:57:30.293Z,16.13
2018-12-31T20:00:01.459Z,14.73
2018-12-31T20:02:33.223Z,12.00
2018-12-31T20:05:05.235Z,12.77
2018-12-31T20:07:36.458Z,9.93
2018-12-31T20:10:08.080Z,13.07
2018-12-31T20:12:39.724Z,14.00
2018-12-31T20:15:10.824Z,13.93
2018-12-31T20:17:41.683Z,14.23
2018-12-31T20:20:12.160Z,12.97
2018-12-31T20:22:43.803Z,18.93
2018-12-31T20:25:14.357Z,17.43
2018-12-31T20:27:45.287Z,16.07
2018-12-31T20:30:17.469Z,18.43
2018-12-31T20:32:47.915Z,17.23
2018-12-31T20:35:20.186Z,15.00
2018-12-31T20:37:50.679Z,14.23
2018-12-31T20:40:21.272Z,14.23
2018-12-31T20:42:52.365Z,14.20
2018-12-31T20:45:23.753Z,14.17
2018-12-31T20:48:01.464Z,17.77
2018-12-31T20:50:27.356Z,18.30
2018-12-31T20:52:58.567Z,15.63
2018-12-31T20:55:29.330Z,17.47
2018-12-31T20:58:00.972Z,18.63
2018-12-31T21:00:31.204Z,19.77
2018-12-31T21:03:02.422Z,20.07
2018-12-31T21:05:34.654Z,19.90
2018-12-31T21:08:05.304Z,21.17
2018-12-31T21:10:36.050Z,24.10
2018-12-31T21:13:06.551Z,56.60
2018-12-31T21:15:37.787Z,56.43
2018-12-31T21:18:08.604Z,26.33
2018-12-31T21:20:39.634Z,28.07
2018-12-31T21:23:11.654Z,29.50
2018-12-31T21:25:42.946Z,29.07
2018-12-31T21:28:13.465Z,29.87
2018-12-31T21:30:45.626Z,30.43
2018-12-31T21:33:18.072Z,29.33
2018-12-31T21:35:49.085Z,29.23
2018-12-31T21:38:20.124Z,28.20
2018-12-31T21:40:50.538Z,24.50
2018-12-31T21:43:21.518Z,26.83
2018-12-31T21:45:53.689Z,24.27
2018-12-31T21:48:24.521Z,92.60
2018-12-31T21:50:55.574Z,68.60
2018-12-31T21:53:25.984Z,40.00
2018-12-31T21:55:56.601Z,27.03
2018-12-31T21:58:27.128Z,25.83
2018-12-31T22:00:57.521Z,24.33
2018-12-31T22:03:28.433Z,26.43
2018-12-31T22:05:59.405Z,24.53
2018-12-31T22:08:30.420Z,34.70
2018-12-31T22:11:01.603Z,33.83
2018-12-31T22:13:32.287Z,29.03
2018-12-31T22:16:03.104Z,28.43
2018-12-31T22:18:33.517Z,31.67
2018-12-31T22:21:05.021Z,28.83
2018-12-31T22:23:35.933Z,29.00
2018-12-31T22:26:07.190Z,34.57
2018-12-31T22:28:37.894Z,31.27
2018-12-31T22:31:09.341Z,30.43
2018-12-31T22:33:40.186Z,29.63
2018-12-31T22:36:10.867Z,30.20
2018-12-31T22:38:42.001Z,29.50
2018-12-31T22:41:12.973Z,27.20
2018-12-31T22:43:44.709Z,31.77
2018-12-31T22:46:15.760Z,29.03
2018-12-31T22:48:46.343Z,29.63
2018-12-31T22:51:17.246Z,29.90
2018-12-31T22:53:47.739Z,32.97
2018-12-31T22:56:18.288Z,30.47
2018-12-31T22:58:49.018Z,33.57
2018-12-31T23:01:19.626Z,98.03
2018-12-31T23:03:51.330Z,173.40
2018-12-31T23:06:22.500Z,178.03
2018-12-31T23:08:52.845Z,156.93
2018-12-31T23:11:24.149Z,98.53
2018-12-31T23:13:56.267Z,89.23
2018-12-31T23:16:28.427Z,111.93
2018-12-31T23:18:59.485Z,123.70
2018-12-31T23:21:30.295Z,98.10
2018-12-31T23:24:01.595Z,54.67
2018-12-31T23:26:32.255Z,60.20
2018-12-31T23:29:03.261Z,58.30
2018-12-31T23:31:34.298Z,55.43
2018-12-31T23:34:05.745Z,59.27
2018-12-31T23:36:37.179Z,61.37
2018-12-31T23:39:08.473Z,59.07
2018-12-31T23:41:39.331Z,54.97
2018-12-31T23:44:10.229Z,50.53
2018-12-31T23:46:40.676Z,49.27
2018-12-31T23:49:11.094Z,46.13
2018-12-31T23:51:42.016Z,68.63
2018-12-31T23:54:13.226Z,55.73
2018-12-31T23:56:44.796Z,43.37
2018-12-31T23:59:15.913Z,40.07
